Time;durP1;ratioP1;P1;durP2;ratioP2;P2;SDS_P1;SDS_P2;PMS_P1;PMS_P2;Temp;Humidity;BMP_temperature;BMP_pressure;BME280_temperature;BME280_humidity;BME280_pressure;Samples;Min_cycle;Max_cycle;Signal;HPM_P1;HPM_P2
2021/05/10 00:01:18;;;;;;;8.38;5.42;;;;;;;13.44;53.20;100622.28;1780052;79;25766;-73
2021/05/10 00:03:54;;;;;;;10.85;5.62;;;;;;;13.36;53.46;100620.30;1774408;79;25695;-73
2021/05/10 00:06:30;;;;;;;9.40;5.40;;;;;;;13.27;53.70;100618.31;1814626;77;32896;-73
2021/05/10 00:09:06;;;;;;;7.65;4.60;;;;;;;13.42;53.42;100622.16;1826639;77;25748;-73
2021/05/10 00:11:41;;;;;;;9.30;5.78;;;;;;;13.23;53.79;100622.95;1785769;79;25810;-72
2021/05/10 00:14:27;;;;;;;10.93;5.75;;;;;;;13.14;54.04;100625.84;1823573;77;25796;-72
2021/05/10 00:16:55;;;;;;;15.70;6.72;;;;;;;13.07;54.17;100620.11;1790832;79;25804;-73
2021/05/10 00:19:31;;;;;;;7.78;4.80;;;;;;;13.01;54.39;100624.92;1785248;79;25699;-73
2021/05/10 00:22:07;;;;;;;11.37;6.20;;;;;;;12.94;54.47;100629.44;1810438;77;33099;-73
2021/05/10 00:24:43;;;;;;;10.53;5.97;;;;;;;13.14;54.22;100629.03;1747323;79;32426;-73
2021/05/10 00:27:18;;;;;;;8.08;5.08;;;;;;;13.25;54.10;100632.48;1796583;79;25282;-73
2021/05/10 00:29:54;;;;;;;9.43;5.10;;;;;;;12.99;54.42;100631.02;1775148;79;25764;-73
2021/05/10 00:32:30;;;;;;;8.33;5.58;;;;;;;12.88;54.71;100634.28;1826775;77;26322;-72
2021/05/10 00:35:06;;;;;;;11.03;5.08;;;;;;;12.76;54.84;100635.38;1805752;79;25671;-73
2021/05/10 00:37:43;;;;;;;7.70;5.80;;;;;;;12.68;55.03;100631.50;1807932;77;27920;-72
2021/05/10 00:40:26;;;;;;;12.05;6.12;;;;;;;12.92;54.87;100636.87;1778547;79;27994;-73
2021/05/10 00:43:02;;;;;;;10.78;5.90;;;;;;;13.07;54.72;100632.21;1830580;77;25744;-72
2021/05/10 00:45:38;;;;;;;8.50;5.43;;;;;;;12.91;54.96;100629.35;1778855;79;32644;-73
2021/05/10 00:48:14;;;;;;;7.45;4.50;;;;;;;13.07;54.67;100622.80;1795117;79;25650;-73
2021/05/10 00:50:49;;;;;;;7.13;4.67;;;;;;;12.91;54.92;100619.94;1743513;79;32699;-73
2021/05/10 00:53:25;;;;;;;5.97;4.50;;;;;;;13.07;54.70;100616.08;1820628;77;32679;-73
2021/05/10 00:56:01;;;;;;;9.73;4.05;;;;;;;13.13;54.57;100622.81;1783612;79;26412;-73
2021/05/10 00:58:39;;;;;;;8.40;5.05;;;;;;;12.93;54.98;100628.63;1774021;79;27885;-72
2021/05/10 01:01:14;;;;;;;9.55;5.92;;;;;;;13.08;54.88;100621.27;1785752;79;25738;-73
2021/05/10 01:03:53;;;;;;;13.45;6.62;;;;;;;12.92;55.12;100624.27;1795212;79;25797;-73
2021/05/10 01:06:35;;;;;;;15.30;5.92;;;;;;;12.77;55.27;100618.21;1821702;77;25828;-73
2021/05/10 01:09:11;;;;;;;11.50;6.90;;;;;;;12.64;55.50;100619.48;1776681;79;32355;-73
2021/05/10 01:11:47;;;;;;;11.10;7.50;;;;;;;12.82;55.37;100623.83;1815895;77;28322;-73
2021/05/10 01:14:23;;;;;;;11.85;6.17;;;;;;;12.90;55.28;100622.81;1768284;79;25731;-72
2021/05/10 01:16:58;;;;;;;9.93;5.75;;;;;;;12.70;55.58;100618.69;1784085;79;25716;-73
2021/05/10 01:19:35;;;;;;;9.85;5.70;;;;;;;12.58;55.77;100625.67;1834610;77;25725;-73
2021/05/10 01:22:13;;;;;;;8.43;5.80;;;;;;;12.48;55.91;100629.23;1818452;77;25683;-73
2021/05/10 01:24:49;;;;;;;9.35;5.85;;;;;;;12.38;56.07;100626.89;1824376;77;25806;-72
2021/05/10 01:27:25;;;;;;;10.73;6.80;;;;;;;12.31;56.21;100622.53;1770070;79;32571;-72
2021/05/10 01:30:04;;;;;;;10.37;6.00;;;;;;;12.53;56.03;100629.99;1789874;78;27939;-72
2021/05/10 01:32:40;;;;;;;9.60;6.25;;;;;;;12.66;55.80;100621.46;1827093;77;25737;-73
2021/05/10 01:35:19;;;;;;;8.93;5.40;;;;;;;12.51;56.05;100627.48;1780638;79;25770;-73
2021/05/10 01:37:57;;;;;;;8.28;5.95;;;;;;;12.40;56.24;100625.38;1785127;79;25907;-73
2021/05/10 01:40:33;;;;;;;10.30;5.80;;;;;;;12.26;56.44;100624.45;1788990;79;25674;-73
2021/05/10 01:43:11;;;;;;;10.77;6.80;;;;;;;12.18;56.61;100630.49;1785015;79;27844;-72
2021/05/10 01:45:48;;;;;;;10.70;6.30;;;;;;;12.34;56.34;100632.35;1827927;77;25702;-73
2021/05/10 01:48:24;;;;;;;8.08;5.12;;;;;;;12.19;56.59;100635.66;1812034;77;25825;-73
2021/05/10 01:51:00;;;;;;;10.45;5.90;;;;;;;12.05;56.80;100637.11;1811406;77;25678;-73
2021/05/10 01:53:36;;;;;;;5.55;4.60;;;;;;;11.95;57.00;100646.86;1791551;79;26197;-73
2021/05/10 01:56:11;;;;;;;7.87;4.87;;;;;;;11.85;57.15;100641.47;1794126;79;26379;-73
2021/05/10 01:58:54;;;;;;;9.03;5.85;;;;;;;11.75;57.20;100640.98;1781529;79;25781;-73
2021/05/10 02:01:30;;;;;;;11.40;6.30;;;;;;;11.65;57.28;100642.64;1784821;79;26282;-73
2021/05/10 02:04:06;;;;;;;10.30;7.27;;;;;;;11.59;57.53;100646.06;1747144;79;38649;-73
2021/05/10 02:06:42;;;;;;;7.97;6.60;;;;;;;11.80;57.30;100642.59;1833132;77;25731;-73
2021/05/10 02:09:24;;;;;;;7.95;5.62;;;;;;;11.71;57.54;100641.05;1798482;79;25724;-73
2021/05/10 02:12:00;;;;;;;9.78;5.95;;;;;;;11.62;57.63;100643.84;1825728;77;25685;-72
2021/05/10 02:14:36;;;;;;;11.55;6.72;;;;;;;11.53;57.84;100641.47;1832028;77;25645;-73
2021/05/10 02:17:11;;;;;;;11.33;5.95;;;;;;;11.48;58.07;100642.04;1793432;79;26352;-73
2021/05/10 02:19:47;;;;;;;7.37;5.65;;;;;;;11.43;58.20;100638.28;1783993;79;25738;-73
2021/05/10 02:22:23;;;;;;;9.30;5.95;;;;;;;11.40;58.30;100646.20;1790517;79;26281;-73
2021/05/10 02:24:59;;;;;;;10.60;6.17;;;;;;;11.36;58.42;100644.08;1810649;77;28346;-73
2021/05/10 02:27:34;;;;;;;8.48;5.87;;;;;;;11.58;58.10;100653.30;1831923;77;25675;-72
2021/05/10 02:30:14;;;;;;;12.50;5.70;;;;;;;11.46;58.37;100649.45;1780235;79;25659;-73
2021/05/10 02:32:50;;;;;;;10.28;6.15;;;;;;;11.41;58.54;100649.72;1819182;77;26289;-72
2021/05/10 02:35:27;;;;;;;8.33;5.87;;;;;;;11.38;58.67;100659.47;1814029;77;25805;-72
2021/05/10 02:38:04;;;;;;;9.73;6.40;;;;;;;11.31;58.77;100654.57;1829040;77;26321;-73
2021/05/10 02:40:40;;;;;;;8.57;5.60;;;;;;;11.26;58.89;100652.95;1819694;77;29167;-73
2021/05/10 02:43:17;;;;;;;10.43;6.43;;;;;;;11.48;58.61;100662.16;1782381;79;33017;-73
2021/05/10 02:45:54;;;;;;;10.32;5.08;;;;;;;11.65;58.44;100653.38;1833178;77;26027;-72
2021/05/10 02:48:29;;;;;;;9.73;5.72;;;;;;;11.53;58.82;100654.37;1810573;77;27852;-73
2021/05/10 02:51:05;;;;;;;13.85;5.12;;;;;;;11.68;58.41;100656.19;1781663;78;25738;-73
2021/05/10 02:53:41;;;;;;;7.65;5.10;;;;;;;11.49;58.76;100656.29;1774907;79;26445;-73
2021/05/10 02:56:17;;;;;;;7.25;4.17;;;;;;;11.33;59.06;100653.34;1829523;77;25824;-73
2021/05/10 02:58:54;;;;;;;8.85;5.55;;;;;;;11.17;59.39;100660.79;1769693;79;28070;-73
2021/05/10 03:01:32;;;;;;;9.93;5.47;;;;;;;11.35;59.16;100667.41;1797088;79;25610;-72
2021/05/10 03:04:08;;;;;;;9.78;4.80;;;;;;;11.20;59.52;100659.08;1831197;77;26023;-73
2021/05/10 03:06:44;;;;;;;8.10;5.17;;;;;;;11.11;59.82;100666.91;1816151;77;32653;-73
2021/05/10 03:09:19;;;;;;;7.28;5.22;;;;;;;11.29;59.39;100663.31;1866687;75;25729;-72
2021/05/10 03:11:55;;;;;;;6.85;5.35;;;;;;;11.17;59.77;100669.67;1813615;77;26158;-72
2021/05/10 03:14:31;;;;;;;7.30;5.33;;;;;;;11.11;60.01;100670.43;1841064;76;28290;-72
2021/05/10 03:17:07;;;;;;;8.65;4.70;;;;;;;11.32;59.63;100668.28;1780932;79;26216;-73
2021/05/10 03:19:44;;;;;;;7.28;4.97;;;;;;;11.20;59.92;100671.14;1838051;76;25733;-73
2021/05/10 03:22:20;;;;;;;10.90;5.25;;;;;;;11.11;60.08;100669.59;1786342;79;25646;-73
2021/05/10 03:24:56;;;;;;;6.87;5.28;;;;;;;11.02;60.27;100668.03;1768661;79;28417;-73
2021/05/10 03:27:39;;;;;;;7.00;5.00;;;;;;;11.22;59.87;100677.98;1779298;79;27781;-73
2021/05/10 03:30:15;;;;;;;6.78;4.65;;;;;;;11.39;59.71;100682.61;1780531;79;26257;-73
2021/05/10 03:32:52;;;;;;;6.30;4.83;;;;;;;11.24;60.02;100684.50;1792259;79;25662;-72
2021/05/10 03:35:28;;;;;;;10.75;5.37;;;;;;;11.15;60.18;100690.98;1784031;79;25765;-72
2021/05/10 03:38:04;;;;;;;7.17;4.95;;;;;;;11.07;60.36;100691.09;1820458;77;25743;-73
2021/05/10 03:40:39;;;;;;;9.05;4.97;;;;;;;10.97;60.57;100691.37;1818009;77;26310;-73
2021/05/10 03:43:15;;;;;;;8.80;4.95;;;;;;;10.89;60.75;100698.18;1793038;79;25763;-73
2021/05/10 03:45:51;;;;;;;7.55;5.22;;;;;;;10.86;61.07;100690.53;1803956;79;25654;-72
2021/05/10 03:48:27;;;;;;;10.60;4.95;;;;;;;10.91;61.28;100690.78;1788906;79;25722;-73
2021/05/10 03:51:02;;;;;;;8.93;5.35;;;;;;;11.03;61.37;100698.69;1776597;79;25856;-72
2021/05/10 03:53:40;;;;;;;8.18;5.05;;;;;;;11.21;61.46;100699.61;1781314;79;26383;-73
2021/05/10 03:56:18;;;;;;;6.40;5.42;;;;;;;11.42;61.08;100688.91;1796732;79;26587;-73
2021/05/10 03:58:53;;;;;;;6.83;4.80;;;;;;;11.58;61.06;100690.03;1823137;77;25731;-72
2021/05/10 04:01:30;;;;;;;7.87;4.90;;;;;;;11.70;61.00;100691.20;1777293;76;27808;-73
2021/05/10 04:09:41;;;;;;;8.13;4.85;;;;;;;11.52;60.59;100700.19;1817572;77;25300;-73
2021/05/10 04:15:02;;;;;;;7.20;4.62;;;;;;;11.45;60.94;100697.93;1825375;77;26266;-73
2021/05/10 04:17:38;;;;;;;6.63;5.20;;;;;;;11.42;61.01;100707.69;1772285;78;33457;-73
2021/05/10 04:20:16;;;;;;;5.97;4.10;;;;;;;11.66;60.66;100708.67;1826456;77;25730;-73
2021/05/10 04:22:52;;;;;;;8.45;4.65;;;;;;;11.55;60.88;100703.30;1801527;79;25741;-73
2021/05/10 04:25:27;;;;;;;8.68;5.58;;;;;;;11.54;61.19;100703.00;1797727;79;26101;-73
2021/05/10 04:28:04;;;;;;;10.88;5.08;;;;;;;11.56;61.28;100700.96;1794610;79;25699;-73
2021/05/10 04:30:41;;;;;;;9.07;5.10;;;;;;;11.58;61.41;100698.91;1819203;77;27770;-73
2021/05/10 04:33:27;;;;;;;7.17;4.42;;;;;;;11.86;61.14;100700.86;1820238;77;25754;-73
2021/05/10 04:36:04;;;;;;;6.33;4.77;;;;;;;11.84;61.23;100697.03;1822984;77;34940;-73
2021/05/10 04:38:43;;;;;;;9.23;5.17;;;;;;;12.10;60.73;100703.95;1775003;78;27896;-73
2021/05/10 04:41:17;;;;;;;6.10;4.33;;;;;;;12.30;60.35;100698.23;1743973;79;25757;-73
2021/05/10 04:43:53;;;;;;;7.85;4.78;;;;;;;12.23;60.71;100696.00;1822426;77;25816;-73
2021/05/10 04:46:29;;;;;;;7.28;4.40;;;;;;;12.25;61.01;100702.01;1794426;79;25771;-72
2021/05/10 04:49:04;;;;;;;7.00;4.45;;;;;;;12.24;60.79;100694.16;1793820;79;25713;-72
2021/05/10 04:51:40;;;;;;;6.42;4.05;;;;;;;12.22;60.79;100692.18;1824625;77;26097;-73
2021/05/10 04:54:16;;;;;;;4.80;3.83;;;;;;;12.27;61.07;100690.56;1789976;79;25294;-72
2021/05/10 04:56:52;;;;;;;6.58;4.53;;;;;;;12.34;61.08;100683.39;1831817;77;25747;-73
2021/05/10 04:59:28;;;;;;;8.90;5.40;;;;;;;12.43;61.39;100690.78;1808346;77;27778;-73
2021/05/10 05:02:03;;;;;;;8.88;5.78;;;;;;;12.72;61.02;100692.42;1827662;77;26267;-72
2021/05/10 05:04:39;;;;;;;8.88;5.22;;;;;;;12.72;61.38;100688.39;1826346;77;25727;-72
2021/05/10 05:07:15;;;;;;;12.07;6.03;;;;;;;12.74;61.10;100678.27;1791916;79;25677;-73
2021/05/10 05:09:51;;;;;;;10.37;6.30;;;;;;;12.83;61.22;100682.45;1813922;77;34863;-75
2021/05/10 05:12:27;;;;;;;7.78;5.00;;;;;;;13.14;60.91;100680.13;1819006;76;28035;-73
2021/05/10 05:15:03;;;;;;;7.75;4.03;;;;;;;13.41;60.21;100677.03;1792771;79;25803;-73
2021/05/10 05:17:39;;;;;;;6.30;5.00;;;;;;;13.42;60.41;100682.70;1808457;77;28479;-73
2021/05/10 05:20:18;;;;;;;6.50;4.75;;;;;;;13.71;60.19;100695.29;1820652;77;25672;-73
2021/05/10 05:22:53;;;;;;;7.62;4.70;;;;;;;13.70;60.36;100693.65;1793491;79;25774;-73
2021/05/10 05:25:29;;;;;;;7.45;4.83;;;;;;;13.74;60.57;100693.55;1826158;77;25745;-73
2021/05/10 05:28:05;;;;;;;9.53;5.22;;;;;;;13.81;60.38;100696.25;1814644;77;34947;-73
2021/05/10 05:30:41;;;;;;;10.63;5.47;;;;;;;14.07;59.67;100690.06;1819213;77;28343;-73
2021/05/10 05:33:17;;;;;;;5.90;4.80;;;;;;;14.27;59.65;100701.64;1828652;77;25765;-73
2021/05/10 05:35:53;;;;;;;10.32;4.47;;;;;;;14.22;59.73;100698.77;1780912;79;26160;-73
2021/05/10 05:38:34;;;;;;;10.03;5.30;;;;;;;14.20;59.46;100696.80;1751146;79;27830;-73
2021/05/10 05:43:45;;;;;;;6.97;4.15;;;;;;;14.42;59.06;100697.73;1825778;77;25738;-73
2021/05/10 05:46:26;;;;;;;8.10;4.83;;;;;;;14.43;58.90;100698.57;1817407;77;35338;-73
2021/05/10 05:48:58;;;;;;;8.55;4.72;;;;;;;14.68;58.46;100690.95;1772420;79;25707;-73
2021/05/10 05:51:35;;;;;;;10.43;4.42;;;;;;;14.64;58.11;100688.37;1834388;76;25685;-74
2021/05/10 05:54:12;;;;;;;7.33;4.80;;;;;;;14.67;58.56;100681.19;1781335;78;27936;-74
2021/05/10 05:56:48;;;;;;;8.60;4.95;;;;;;;14.95;58.18;100679.55;1801894;79;26195;-74
2021/05/10 05:59:23;;;;;;;11.22;6.75;;;;;;;14.95;58.47;100682.80;1789341;79;25656;-73
2021/05/10 06:01:59;;;;;;;9.83;6.08;;;;;;;15.00;58.59;100678.41;1779134;79;27817;-73
2021/05/10 06:04:35;;;;;;;10.45;4.95;;;;;;;15.28;57.87;100685.66;1831418;77;25824;-74
2021/05/10 06:07:11;;;;;;;7.42;4.90;;;;;;;15.28;58.07;100688.86;1815954;77;27812;-74
2021/05/10 06:09:47;;;;;;;8.48;4.28;;;;;;;15.50;57.11;100686.20;1823559;77;25777;-74
2021/05/10 06:12:23;;;;;;;6.83;4.53;;;;;;;15.49;57.35;100681.83;1770852;79;33278;-73
2021/05/10 06:14:59;;;;;;;4.83;4.10;;;;;;;15.76;57.19;100677.10;1797900;79;25776;-74
2021/05/10 06:17:39;;;;;;;6.63;4.37;;;;;;;15.78;57.73;100683.91;1789503;79;33418;-73
2021/05/10 06:20:16;;;;;;;10.30;4.28;;;;;;;16.04;56.81;100683.72;1785586;79;25750;-74
2021/05/10 06:22:52;;;;;;;6.12;4.30;;;;;;;15.96;56.54;100685.35;1785245;79;25707;-73
2021/05/10 06:25:27;;;;;;;6.67;4.22;;;;;;;15.97;57.38;100677.53;1828920;77;25649;-74
2021/05/10 06:28:04;;;;;;;10.23;6.15;;;;;;;16.00;56.64;100679.81;1770217;79;38207;-73
2021/05/10 06:30:39;;;;;;;9.60;5.37;;;;;;;16.28;56.62;100687.47;1809672;77;27885;-74
2021/05/10 06:33:15;;;;;;;7.33;3.98;;;;;;;16.52;56.21;100679.06;1815089;77;28271;-73
2021/05/10 06:35:51;;;;;;;10.23;4.28;;;;;;;16.69;55.47;100672.02;1815051;77;27759;-74
2021/05/10 06:38:27;;;;;;;5.72;4.30;;;;;;;16.85;55.30;100679.01;1829209;77;25708;-74
2021/05/10 06:41:03;;;;;;;6.87;3.90;;;;;;;16.81;55.74;100674.27;1750760;79;25700;-73
2021/05/10 06:43:38;;;;;;;8.33;4.45;;;;;;;16.83;55.82;100673.00;1790051;79;25770;-74
2021/05/10 06:46:14;;;;;;;10.70;4.53;;;;;;;16.85;55.48;100676.30;1829970;77;26388;-74
2021/05/10 06:48:50;;;;;;;8.48;3.55;;;;;;;16.84;54.84;100668.42;1828990;77;25807;-74
2021/05/10 06:51:26;;;;;;;5.92;3.75;;;;;;;16.86;54.98;100673.08;1746200;79;25694;-74
2021/05/10 06:54:02;;;;;;;6.08;3.72;;;;;;;16.90;55.37;100665.64;1792730;79;25457;-74
2021/05/10 06:56:37;;;;;;;6.75;3.62;;;;;;;16.99;55.23;100671.58;1797043;79;26240;-74
2021/05/10 06:59:13;;;;;;;6.08;3.12;;;;;;;17.10;54.85;100665.92;1792959;79;25779;-73
2021/05/10 07:01:49;;;;;;;6.70;3.22;;;;;;;17.19;55.08;100664.56;1795705;79;25754;-74
2021/05/10 07:04:25;;;;;;;4.95;3.47;;;;;;;17.25;54.38;100660.94;1805091;79;25288;-74
2021/05/10 07:07:00;;;;;;;7.22;3.77;;;;;;;17.33;54.33;100667.38;1831619;77;26280;-74
2021/05/10 07:09:36;;;;;;;6.03;3.67;;;;;;;17.41;54.26;100661.13;1822981;77;25675;-74
2021/05/10 07:12:12;;;;;;;5.80;3.85;;;;;;;17.48;54.83;100659.67;1821509;77;25701;-74
2021/05/10 07:14:48;;;;;;;7.07;3.70;;;;;;;17.58;54.30;100658.61;1778544;79;28789;-74
2021/05/10 07:17:24;;;;;;;7.47;3.72;;;;;;;17.86;53.19;100664.23;1831942;77;26357;-74
2021/05/10 07:20:00;;;;;;;8.23;3.85;;;;;;;17.88;53.43;100661.31;1785328;79;25748;-74
2021/05/10 07:22:35;;;;;;;7.72;3.35;;;;;;;17.92;53.21;100653.81;1827341;77;25820;-74
2021/05/10 07:25:12;;;;;;;6.37;3.65;;;;;;;18.02;53.78;100658.67;1810365;78;25863;-74
2021/05/10 07:27:47;;;;;;;5.80;3.50;;;;;;;18.13;53.62;100656.51;1778754;79;27813;-74
2021/05/10 07:30:23;;;;;;;6.97;3.92;;;;;;;18.42;53.24;100656.92;1816786;77;25766;-74
2021/05/10 07:32:59;;;;;;;5.57;3.43;;;;;;;18.43;52.56;100652.61;1813564;77;32634;-74
2021/05/10 07:35:35;;;;;;;5.70;3.52;;;;;;;18.69;51.15;100646.45;1800057;79;25681;-74
2021/05/10 07:38:11;;;;;;;9.60;3.37;;;;;;;18.67;51.39;100645.30;1808672;77;33705;-74
2021/05/10 07:40:47;;;;;;;7.72;3.77;;;;;;;18.88;50.96;100650.66;1800160;77;27772;-74
2021/05/10 07:43:23;;;;;;;7.50;3.40;;;;;;;19.03;50.09;100645.55;1826499;77;25743;-74
2021/05/10 07:45:58;;;;;;;11.20;3.72;;;;;;;18.97;50.92;100643.77;1827766;77;25819;-74
2021/05/10 07:48:34;;;;;;;7.45;3.33;;;;;;;18.97;50.14;100645.12;1794093;79;25698;-74
2021/05/10 07:51:11;;;;;;;6.47;3.70;;;;;;;18.96;50.51;100647.03;1799002;77;33070;-74
2021/05/10 07:53:46;;;;;;;7.22;4.08;;;;;;;19.24;50.34;100645.70;1753049;79;37964;-74
2021/05/10 07:56:22;;;;;;;7.85;3.50;;;;;;;19.43;49.84;100649.08;1774457;79;28477;-74
2021/05/10 07:59:00;;;;;;;13.88;4.45;;;;;;;19.61;49.37;100652.12;1815109;77;27696;-74
2021/05/10 08:01:36;;;;;;;8.23;3.10;;;;;;;19.73;49.66;100644.20;1875159;76;25626;-74
2021/05/10 08:04:12;;;;;;;7.60;3.30;;;;;;;19.66;49.50;100634.00;1811999;77;27821;-74
2021/05/10 08:06:48;;;;;;;8.45;3.62;;;;;;;19.83;48.71;100628.58;1823304;77;25629;-74
2021/05/10 08:09:24;;;;;;;9.18;3.58;;;;;;;19.73;49.37;100626.53;1833414;77;25663;-74
2021/05/10 08:11:59;;;;;;;6.70;3.00;;;;;;;19.73;48.54;100627.05;1797363;79;25716;-74
2021/05/10 08:14:36;;;;;;;6.17;3.55;;;;;;;19.72;48.58;100629.47;1800292;79;26261;-73
2021/05/10 08:17:12;;;;;;;7.90;3.17;;;;;;;19.72;48.24;100623.50;1800035;77;27863;-74
2021/05/10 08:19:48;;;;;;;5.00;3.22;;;;;;;19.96;48.18;100629.61;1767789;79;27946;-74
2021/05/10 08:22:24;;;;;;;5.70;2.97;;;;;;;20.19;48.16;100633.52;1810090;77;27909;-74
2021/05/10 08:25:00;;;;;;;8.78;2.92;;;;;;;20.35;47.35;100634.08;1781857;79;38629;-74
2021/05/10 08:27:36;;;;;;;7.05;3.40;;;;;;;20.47;47.32;100624.44;1796219;77;28319;-74
2021/05/10 08:30:14;;;;;;;4.80;2.80;;;;;;;20.65;47.74;100621.44;1812781;77;27860;-74
2021/05/10 08:32:51;;;;;;;5.62;2.70;;;;;;;20.81;46.57;100619.73;1830895;77;25688;-74
2021/05/10 08:35:27;;;;;;;4.70;2.80;;;;;;;20.73;47.56;100616.37;1807068;77;27890;-74
2021/05/10 08:38:03;;;;;;;6.17;2.50;;;;;;;20.93;46.05;100616.34;1793542;79;25706;-74
2021/05/10 08:40:39;;;;;;;3.60;2.65;;;;;;;20.90;44.29;100619.03;1775472;79;27949;-74
2021/05/10 08:43:23;;;;;;;5.17;2.80;;;;;;;21.07;45.09;100609.45;1753373;79;28021;-74
2021/05/10 08:46:00;;;;;;;7.10;2.25;;;;;;;21.16;43.37;100613.37;1791217;79;25663;-74
2021/05/10 08:48:36;;;;;;;4.22;2.30;;;;;;;21.04;44.10;100624.95;1823089;77;25753;-73
2021/05/10 08:51:13;;;;;;;4.25;2.40;;;;;;;21.04;44.79;100612.14;1785134;79;25740;-74
2021/05/10 08:53:49;;;;;;;5.42;2.12;;;;;;;21.07;45.08;100610.28;1826204;77;26449;-74
2021/05/10 08:56:25;;;;;;;4.47;2.42;;;;;;;21.14;44.65;100606.83;1788991;79;25767;-74
2021/05/10 08:59:01;;;;;;;5.40;2.40;;;;;;;21.20;44.46;100605.80;1777104;79;28479;-74
2021/05/10 09:01:49;;;;;;;5.17;2.17;;;;;;;21.43;43.78;100615.56;1789042;79;25679;-74
2021/05/10 09:04:37;;;;;;;3.22;1.95;;;;;;;21.41;43.59;100604.92;1827079;77;25706;-74
2021/05/10 09:07:23;;;;;;;2.92;1.92;;;;;;;21.46;44.13;100609.61;1871694;76;26206;-74
2021/05/10 09:10:03;;;;;;;3.97;1.70;;;;;;;21.49;43.21;100612.63;1762287;79;27810;-74
2021/05/10 09:12:52;;;;;;;3.95;1.75;;;;;;;21.69;42.67;100609.80;1828780;77;25731;-74
2021/05/10 09:15:34;;;;;;;4.72;1.60;;;;;;;21.64;41.89;100616.59;1831841;77;26359;-74
2021/05/10 09:18:10;;;;;;;3.45;1.90;;;;;;;21.61;41.54;100614.38;1828826;77;26324;-74
2021/05/10 09:20:46;;;;;;;3.60;1.97;;;;;;;21.63;43.26;100612.22;1812380;77;34906;-74
2021/05/10 09:23:25;;;;;;;4.47;2.05;;;;;;;21.87;43.08;100604.84;1830395;77;25731;-74
2021/05/10 09:26:02;;;;;;;5.47;1.42;;;;;;;21.90;42.51;100607.56;1830826;77;26434;-74
2021/05/10 09:28:43;;;;;;;3.62;2.08;;;;;;;21.87;42.16;100599.39;1807312;77;27692;-74
2021/05/10 09:31:19;;;;;;;4.40;1.67;;;;;;;22.10;42.08;100603.64;1824358;77;25722;-74
2021/05/10 09:33:56;;;;;;;1.80;1.70;;;;;;;22.06;41.86;100597.89;1774694;79;28060;-74
2021/05/10 09:36:39;;;;;;;2.87;1.90;;;;;;;22.29;41.22;100593.94;1861519;74;28482;-74
2021/05/10 09:39:30;;;;;;;2.72;1.90;;;;;;;22.46;41.88;100584.20;1791214;79;25749;-74
2021/05/10 09:42:06;;;;;;;4.42;1.80;;;;;;;22.41;41.77;100575.44;1778258;79;25804;-74
2021/05/10 09:44:43;;;;;;;3.70;1.90;;;;;;;22.42;41.52;100573.55;1817905;77;28312;-74
2021/05/10 09:47:22;;;;;;;2.87;1.67;;;;;;;22.65;39.73;100574.50;1827104;77;25817;-74
2021/05/10 09:49:58;;;;;;;4.33;1.80;;;;;;;22.56;40.95;100571.42;1785671;79;25759;-74
2021/05/10 09:52:34;;;;;;;4.67;2.58;;;;;;;22.60;41.28;100573.13;1829616;77;25740;-74
2021/05/10 09:55:10;;;;;;;2.93;1.60;;;;;;;22.63;41.41;100566.59;1821059;77;34915;-74
2021/05/10 09:57:55;;;;;;;2.08;1.20;;;;;;;22.93;41.20;100559.88;1813363;77;27781;-74
2021/05/10 10:00:31;;;;;;;2.17;1.30;;;;;;;23.18;39.48;100564.56;1818092;77;25820;-74
2021/05/10 10:03:27;;;;;;;3.70;1.40;;;;;;;23.12;40.32;100571.12;1778871;79;25715;-74
2021/05/10 10:06:07;;;;;;;2.80;1.60;;;;;;;23.08;39.90;100573.28;1812458;77;34931;-74
2021/05/10 10:08:46;;;;;;;4.65;2.17;;;;;;;23.26;39.41;100578.27;1828126;77;25735;-74
2021/05/10 10:11:25;;;;;;;11.95;1.90;;;;;;;23.18;39.38;100571.97;1795451;79;25747;-74
2021/05/10 10:14:03;;;;;;;3.30;1.20;;;;;;;23.14;38.71;100577.13;1783853;79;26371;-74
2021/05/10 10:16:39;;;;;;;3.87;1.42;;;;;;;23.18;39.07;100564.56;1826549;77;25704;-74
2021/05/10 10:19:16;;;;;;;2.75;1.90;;;;;;;23.21;38.96;100570.88;1802413;79;25714;-74
2021/05/10 10:21:52;;;;;;;3.58;1.60;;;;;;;23.25;38.85;100564.30;1831098;76;25740;-74
2021/05/10 10:24:28;;;;;;;4.05;1.87;;;;;;;23.28;38.38;100567.88;1812840;77;28530;-74
2021/05/10 10:27:04;;;;;;;6.85;1.95;;;;;;;23.50;38.61;100568.50;1814646;77;28433;-73
2021/05/10 10:29:43;;;;;;;4.42;1.52;;;;;;;23.71;37.97;100561.39;1821180;77;28352;-74
2021/05/10 10:32:22;;;;;;;7.12;1.72;;;;;;;23.91;35.92;100559.74;1807356;78;25722;-74
2021/05/10 10:34:58;;;;;;;3.35;1.50;;;;;;;23.73;38.00;100557.84;1832869;77;25661;-74
2021/05/10 10:37:34;;;;;;;1.40;1.05;;;;;;;23.77;37.21;100559.47;1820568;77;25841;-75
2021/05/10 10:40:20;;;;;;;5.65;1.65;;;;;;;23.78;38.35;100556.98;1789429;79;25274;-74
2021/05/10 10:43:23;;;;;;;3.45;1.40;;;;;;;23.83;38.74;100558.36;1823584;77;25244;-74
2021/05/10 10:46:18;;;;;;;3.00;1.40;;;;;;;23.90;38.05;100561.65;1828687;77;26038;-74
2021/05/10 10:49:02;;;;;;;4.33;1.17;;;;;;;23.97;38.61;100556.73;1837079;77;26007;-74
2021/05/10 10:51:51;;;;;;;4.28;1.60;;;;;;;24.02;38.29;100557.23;1786441;79;25748;-74
2021/05/10 10:54:29;;;;;;;4.22;1.20;;;;;;;24.04;38.43;100556.41;1826951;77;25691;-74
2021/05/10 10:57:05;;;;;;;4.28;1.17;;;;;;;23.99;39.12;100542.22;1808985;78;26346;-74
2021/05/10 10:59:42;;;;;;;3.90;1.20;;;;;;;24.11;38.79;100556.98;1804055;77;27812;-74
2021/05/10 11:02:21;;;;;;;4.90;1.30;;;;;;;24.28;38.19;100534.23;1763698;79;25742;-74
2021/05/10 11:05:14;;;;;;;9.10;1.32;;;;;;;24.33;38.32;100539.16;1781322;78;25758;-74
2021/05/10 11:08:08;;;;;;;3.62;1.60;;;;;;;24.38;37.45;100541.03;1792263;79;25737;-74
2021/05/10 11:10:51;;;;;;;2.02;1.30;;;;;;;24.38;38.20;100538.30;1821987;77;25649;-74
2021/05/10 11:13:38;;;;;;;3.75;1.20;;;;;;;24.38;38.31;100539.66;1779711;79;25678;-74
2021/05/10 11:16:16;;;;;;;3.12;1.20;;;;;;;24.42;38.88;100538.03;1829954;77;25620;-74
2021/05/10 11:18:54;;;;;;;4.83;1.27;;;;;;;24.48;37.81;100530.06;1831216;77;25740;-74
2021/05/10 11:21:35;;;;;;;4.62;1.15;;;;;;;24.51;37.95;100522.10;1788206;79;25697;-74
2021/05/10 11:24:13;;;;;;;2.27;1.02;;;;;;;24.58;37.80;100531.93;1787066;79;25704;-75
2021/05/10 11:26:55;;;;;;;2.42;1.10;;;;;;;24.58;36.23;100531.93;1779540;79;25995;-74
2021/05/10 11:29:42;;;;;;;4.58;1.57;;;;;;;24.60;36.84;100529.73;1786076;79;25782;-75
2021/05/10 11:32:27;;;;;;;3.95;1.20;;;;;;;24.62;37.00;100530.27;1829042;77;26353;-74
2021/05/10 11:35:28;;;;;;;1.70;1.32;;;;;;;24.65;36.19;100526.98;1789853;79;26297;-74
2021/05/10 11:38:06;;;;;;;3.15;1.20;;;;;;;24.71;37.14;100527.22;1788722;79;25713;-74
2021/05/10 11:40:48;;;;;;;1.87;1.22;;;;;;;24.77;37.16;100520.64;1776511;79;25740;-74
2021/05/10 11:43:24;;;;;;;5.25;1.02;;;;;;;24.82;36.63;100523.36;1784511;79;26536;-74
2021/05/10 11:45:59;;;;;;;3.72;1.20;;;;;;;24.86;36.55;100521.69;1809375;77;28376;-74
2021/05/10 11:48:42;;;;;;;4.12;1.07;;;;;;;25.07;35.58;100520.47;1779406;79;28325;-74
2021/05/10 11:51:21;;;;;;;3.67;1.20;;;;;;;25.32;35.03;100518.12;1760394;79;25790;-74
2021/05/10 11:54:05;;;;;;;1.10;1.00;;;;;;;25.26;35.75;100513.20;1793261;79;25765;-74
2021/05/10 11:56:46;;;;;;;4.55;1.50;;;;;;;25.25;35.99;100498.70;1792711;79;25757;-75
2021/05/10 11:59:34;;;;;;;2.33;1.20;;;;;;;25.28;36.01;100504.72;1806023;77;26355;-75
2021/05/10 12:02:27;;;;;;;5.03;1.43;;;;;;;25.22;35.39;100506.11;1812851;77;27947;-74
2021/05/10 12:05:09;;;;;;;7.55;1.50;;;;;;;25.41;35.25;100502.13;1822859;77;25680;-75
2021/05/10 12:07:46;;;;;;;3.15;1.47;;;;;;;25.42;35.63;100511.20;1799696;79;25823;-74
2021/05/10 12:10:21;;;;;;;1.37;1.10;;;;;;;25.43;40.69;100515.60;1803917;77;25277;-74
2021/05/10 12:12:57;;;;;;;3.60;1.55;;;;;;;25.43;36.02;100508.17;1820384;77;27647;-74
2021/05/10 12:15:33;;;;;;;1.80;1.47;;;;;;;25.64;36.06;100508.26;1769530;79;28342;-74
2021/05/10 12:18:09;;;;;;;2.20;1.32;;;;;;;25.79;35.16;100504.00;1768873;79;27956;-74
2021/05/10 12:20:45;;;;;;;2.15;1.10;;;;;;;25.98;34.88;100499.41;1825689;77;25776;-74
2021/05/10 12:23:21;;;;;;;2.20;1.37;;;;;;;25.94;35.29;100496.16;1807153;77;27882;-74